sensor_id;sensor_type;location;lat;lon;timestamp;temperature;humidity
7378;DHT22;3730;50.856;12.776;2023-12-22T00:01:19;3.70;90.40
7378;DHT22;3730;50.856;12.776;2023-12-22T00:03:45;3.80;99.90
7378;DHT22;3730;50.856;12.776;2023-12-22T00:06:11;3.90;99.90
7378;DHT22;3730;50.856;12.776;2023-12-22T00:08:37;3.80;12.00
7378;DHT22;3730;50.856;12.776;2023-12-22T00:11:03;3.80;21.10
7378;DHT22;3730;50.856;12.776;2023-12-22T00:13:29;3.60;1.00
7378;DHT22;3730;50.856;12.776;2023-12-22T00:15:55;3.80;1.00
7378;DHT22;3730;50.856;12.776;2023-12-22T00:18:20;3.80;1.00
7378;DHT22;3730;50.856;12.776;2023-12-22T00:20:46;3.90;1.00
7378;DHT22;3730;50.856;12.776;2023-12-22T00:23:12;3.90;1.00
7378;DHT22;3730;50.856;12.776;2023-12-22T00:25:37;3.80;1.00
7378;DHT22;3730;50.856;12.776;2023-12-22T00:28:03;3.80;99.90
7378;DHT22;3730;50.856;12.776;2023-12-22T00:30:29;3.90;99.90
7378;DHT22;3730;50.856;12.776;2023-12-22T00:35:20;3.90;99.90
7378;DHT22;3730;50.856;12.776;2023-12-22T00:37:46;3.70;99.90
7378;DHT22;3730;50.856;12.776;2023-12-22T00:40:12;4.00;99.90
7378;DHT22;3730;50.856;12.776;2023-12-22T00:42:37;3.90;99.90
7378;DHT22;3730;50.856;12.776;2023-12-22T00:45:04;3.90;99.90
7378;DHT22;3730;50.856;12.776;2023-12-22T00:47:29;3.70;99.90
7378;DHT22;3730;50.856;12.776;2023-12-22T00:49:55;4.00;99.90
7378;DHT22;3730;50.856;12.776;2023-12-22T00:52:21;3.80;31.50
7378;DHT22;3730;50.856;12.776;2023-12-22T00:54:46;3.90;87.30
7378;DHT22;3730;50.856;12.776;2023-12-22T00:59:38;3.90;1.00
7378;DHT22;3730;50.856;12.776;2023-12-22T01:02:10;3.90;1.00
7378;DHT22;3730;50.856;12.776;2023-12-22T01:04:36;3.90;1.00
7378;DHT22;3730;50.856;12.776;2023-12-22T01:07:01;3.80;1.00
7378;DHT22;3730;50.856;12.776;2023-12-22T01:09:27;3.90;1.00
7378;DHT22;3730;50.856;12.776;2023-12-22T01:11:52;3.80;1.00
7378;DHT22;3730;50.856;12.776;2023-12-22T01:14:18;3.80;1.00
7378;DHT22;3730;50.856;12.776;2023-12-22T01:16:44;3.70;1.00
7378;DHT22;3730;50.856;12.776;2023-12-22T01:19:09;3.70;1.00
7378;DHT22;3730;50.856;12.776;2023-12-22T01:24:01;3.80;1.00
7378;DHT22;3730;50.856;12.776;2023-12-22T01:26:26;3.90;1.00
7378;DHT22;3730;50.856;12.776;2023-12-22T01:28:52;3.70;1.00
7378;DHT22;3730;50.856;12.776;2023-12-22T01:31:18;3.80;1.00
7378;DHT22;3730;50.856;12.776;2023-12-22T01:33:44;4.00;1.00
7378;DHT22;3730;50.856;12.776;2023-12-22T01:36:10;3.60;1.00
7378;DHT22;3730;50.856;12.776;2023-12-22T01:38:36;3.90;1.00
7378;DHT22;3730;50.856;12.776;2023-12-22T01:43:27;4.10;1.00
7378;DHT22;3730;50.856;12.776;2023-12-22T01:45:57;4.00;1.00
7378;DHT22;3730;50.856;12.776;2023-12-22T01:48:24;4.00;1.00
7378;DHT22;3730;50.856;12.776;2023-12-22T01:50:51;4.10;1.00
7378;DHT22;3730;50.856;12.776;2023-12-22T01:53:18;4.10;1.00
7378;DHT22;3730;50.856;12.776;2023-12-22T01:55:45;4.10;1.00
7378;DHT22;3730;50.856;12.776;2023-12-22T01:58:11;3.90;1.00
7378;DHT22;3730;50.856;12.776;2023-12-22T02:03:03;4.00;1.00
7378;DHT22;3730;50.856;12.776;2023-12-22T02:05:29;4.00;1.00
7378;DHT22;3730;50.856;12.776;2023-12-22T02:07:55;4.00;1.00
7378;DHT22;3730;50.856;12.776;2023-12-22T02:10:20;4.00;1.00
7378;DHT22;3730;50.856;12.776;2023-12-22T02:15:12;3.80;1.00
7378;DHT22;3730;50.856;12.776;2023-12-22T02:17:43;3.90;1.00
7378;DHT22;3730;50.856;12.776;2023-12-22T02:20:10;4.10;1.00
7378;DHT22;3730;50.856;12.776;2023-12-22T02:25:02;4.10;1.00
7378;DHT22;3730;50.856;12.776;2023-12-22T02:27:31;3.90;1.00
7378;DHT22;3730;50.856;12.776;2023-12-22T02:32:35;4.20;99.90
7378;DHT22;3730;50.856;12.776;2023-12-22T02:35:04;4.50;99.90
7378;DHT22;3730;50.856;12.776;2023-12-22T02:37:35;4.00;1.00
7378;DHT22;3730;50.856;12.776;2023-12-22T02:40:02;4.00;1.00
7378;DHT22;3730;50.856;12.776;2023-12-22T02:42:29;4.10;1.00
7378;DHT22;3730;50.856;12.776;2023-12-22T02:44:59;4.10;1.00
7378;DHT22;3730;50.856;12.776;2023-12-22T02:47:25;4.00;1.00
7378;DHT22;3730;50.856;12.776;2023-12-22T02:49:53;4.10;1.00
7378;DHT22;3730;50.856;12.776;2023-12-22T02:52:18;4.20;1.00
7378;DHT22;3730;50.856;12.776;2023-12-22T02:54:44;4.00;1.00
7378;DHT22;3730;50.856;12.776;2023-12-22T02:57:09;4.00;1.00
7378;DHT22;3730;50.856;12.776;2023-12-22T02:59:36;4.00;1.00
7378;DHT22;3730;50.856;12.776;2023-12-22T03:02:02;4.10;1.00
7378;DHT22;3730;50.856;12.776;2023-12-22T03:04:28;4.00;1.00
7378;DHT22;3730;50.856;12.776;2023-12-22T03:06:53;4.10;1.00
7378;DHT22;3730;50.856;12.776;2023-12-22T03:09:19;4.10;1.00
7378;DHT22;3730;50.856;12.776;2023-12-22T03:11:44;5.80;99.90
7378;DHT22;3730;50.856;12.776;2023-12-22T03:16:36;4.00;1.00
7378;DHT22;3730;50.856;12.776;2023-12-22T03:19:02;4.10;1.00
7378;DHT22;3730;50.856;12.776;2023-12-22T03:21:27;4.00;1.00
7378;DHT22;3730;50.856;12.776;2023-12-22T03:23:53;3.90;1.00
7378;DHT22;3730;50.856;12.776;2023-12-22T03:26:18;4.00;1.00
7378;DHT22;3730;50.856;12.776;2023-12-22T03:28:44;4.10;1.00
7378;DHT22;3730;50.856;12.776;2023-12-22T03:31:10;3.80;1.00
7378;DHT22;3730;50.856;12.776;2023-12-22T03:33:36;4.20;1.00
7378;DHT22;3730;50.856;12.776;2023-12-22T03:36:02;4.90;1.00
7378;DHT22;3730;50.856;12.776;2023-12-22T03:38:27;3.70;1.00
7378;DHT22;3730;50.856;12.776;2023-12-22T03:40:53;3.90;1.00
7378;DHT22;3730;50.856;12.776;2023-12-22T03:43:19;3.90;1.00
7378;DHT22;3730;50.856;12.776;2023-12-22T03:45:44;4.00;1.00
7378;DHT22;3730;50.856;12.776;2023-12-22T03:48:10;4.00;1.00
7378;DHT22;3730;50.856;12.776;2023-12-22T04:00:20;2.60;99.90
7378;DHT22;3730;50.856;12.776;2023-12-22T04:02:45;2.40;1.00
7378;DHT22;3730;50.856;12.776;2023-12-22T04:12:29;2.20;1.00
7378;DHT22;3730;50.856;12.776;2023-12-22T04:14:55;2.20;1.00
7378;DHT22;3730;50.856;12.776;2023-12-22T04:17:21;2.40;1.00
7378;DHT22;3730;50.856;12.776;2023-12-22T04:19:46;1.80;1.00
7378;DHT22;3730;50.856;12.776;2023-12-22T04:22:12;1.90;1.00
7378;DHT22;3730;50.856;12.776;2023-12-22T04:24:37;1.70;1.00
7378;DHT22;3730;50.856;12.776;2023-12-22T04:27:03;1.70;1.00
7378;DHT22;3730;50.856;12.776;2023-12-22T04:29:29;1.90;1.00
7378;DHT22;3730;50.856;12.776;2023-12-22T04:31:54;1.70;1.00
7378;DHT22;3730;50.856;12.776;2023-12-22T04:34:20;1.70;1.00
7378;DHT22;3730;50.856;12.776;2023-12-22T04:36:45;1.80;1.00
7378;DHT22;3730;50.856;12.776;2023-12-22T04:39:12;2.00;1.00
7378;DHT22;3730;50.856;12.776;2023-12-22T04:44:04;2.10;1.00
7378;DHT22;3730;50.856;12.776;2023-12-22T04:46:30;2.20;1.00
7378;DHT22;3730;50.856;12.776;2023-12-22T04:48:56;2.10;1.00
7378;DHT22;3730;50.856;12.776;2023-12-22T04:51:21;2.20;1.00
7378;DHT22;3730;50.856;12.776;2023-12-22T04:53:47;2.30;1.00
7378;DHT22;3730;50.856;12.776;2023-12-22T04:56:13;2.30;1.00
7378;DHT22;3730;50.856;12.776;2023-12-22T04:58:38;2.40;1.00
7378;DHT22;3730;50.856;12.776;2023-12-22T05:01:04;2.30;1.00
7378;DHT22;3730;50.856;12.776;2023-12-22T05:03:30;2.50;1.00
7378;DHT22;3730;50.856;12.776;2023-12-22T05:05:55;2.30;1.00
7378;DHT22;3730;50.856;12.776;2023-12-22T05:08:21;2.40;1.00
7378;DHT22;3730;50.856;12.776;2023-12-22T05:10:46;2.30;1.00
7378;DHT22;3730;50.856;12.776;2023-12-22T05:13:12;2.50;1.00
7378;DHT22;3730;50.856;12.776;2023-12-22T05:15:38;2.40;1.00
7378;DHT22;3730;50.856;12.776;2023-12-22T05:20:29;2.40;1.00
7378;DHT22;3730;50.856;12.776;2023-12-22T05:25:22;2.40;99.90
7378;DHT22;3730;50.856;12.776;2023-12-22T05:27:47;2.50;99.90
7378;DHT22;3730;50.856;12.776;2023-12-22T05:30:13;2.50;99.90
7378;DHT22;3730;50.856;12.776;2023-12-22T05:32:39;2.60;99.90
7378;DHT22;3730;50.856;12.776;2023-12-22T05:35:12;2.60;99.90
7378;DHT22;3730;50.856;12.776;2023-12-22T05:37:38;2.50;99.90
7378;DHT22;3730;50.856;12.776;2023-12-22T05:40:04;2.40;99.90
7378;DHT22;3730;50.856;12.776;2023-12-22T05:42:32;2.50;99.90
7378;DHT22;3730;50.856;12.776;2023-12-22T05:44:57;2.40;99.90
7378;DHT22;3730;50.856;12.776;2023-12-22T05:47:23;2.50;99.90
7378;DHT22;3730;50.856;12.776;2023-12-22T05:49:49;2.30;99.90
7378;DHT22;3730;50.856;12.776;2023-12-22T05:52:14;2.40;99.90
7378;DHT22;3730;50.856;12.776;2023-12-22T05:54:40;2.40;99.90
7378;DHT22;3730;50.856;12.776;2023-12-22T05:57:06;2.40;99.90
7378;DHT22;3730;50.856;12.776;2023-12-22T05:59:33;2.40;99.90
7378;DHT22;3730;50.856;12.776;2023-12-22T06:01:59;2.40;97.70
7378;DHT22;3730;50.856;12.776;2023-12-22T06:04:25;2.50;99.90
7378;DHT22;3730;50.856;12.776;2023-12-22T06:06:51;2.40;99.90
7378;DHT22;3730;50.856;12.776;2023-12-22T06:09:17;2.50;99.90
7378;DHT22;3730;50.856;12.776;2023-12-22T06:11:45;2.30;99.90
7378;DHT22;3730;50.856;12.776;2023-12-22T06:14:11;2.50;99.90
7378;DHT22;3730;50.856;12.776;2023-12-22T06:16:36;2.40;99.90
7378;DHT22;3730;50.856;12.776;2023-12-22T06:19:02;2.40;1.00
7378;DHT22;3730;50.856;12.776;2023-12-22T06:21:28;2.30;1.00
7378;DHT22;3730;50.856;12.776;2023-12-22T06:23:54;2.50;1.00
7378;DHT22;3730;50.856;12.776;2023-12-22T06:26:19;2.90;1.00
7378;DHT22;3730;50.856;12.776;2023-12-22T06:28:45;2.40;1.00
7378;DHT22;3730;50.856;12.776;2023-12-22T06:31:18;2.30;1.00
7378;DHT22;3730;50.856;12.776;2023-12-22T06:33:45;2.50;1.00
7378;DHT22;3730;50.856;12.776;2023-12-22T06:36:21;2.40;1.00
7378;DHT22;3730;50.856;12.776;2023-12-22T06:38:47;2.50;99.90
7378;DHT22;3730;50.856;12.776;2023-12-22T06:41:27;2.70;99.90
7378;DHT22;3730;50.856;12.776;2023-12-22T06:43:53;2.50;99.90
7378;DHT22;3730;50.856;12.776;2023-12-22T06:46:20;2.40;99.90
7378;DHT22;3730;50.856;12.776;2023-12-22T06:48:46;2.30;99.90
7378;DHT22;3730;50.856;12.776;2023-12-22T06:51:25;2.60;99.90
7378;DHT22;3730;50.856;12.776;2023-12-22T06:53:56;3.00;99.90
7378;DHT22;3730;50.856;12.776;2023-12-22T06:56:24;2.40;99.90
7378;DHT22;3730;50.856;12.776;2023-12-22T06:58:51;2.50;99.90
7378;DHT22;3730;50.856;12.776;2023-12-22T07:01:31;2.60;99.90
7378;DHT22;3730;50.856;12.776;2023-12-22T07:03:58;2.30;99.90
7378;DHT22;3730;50.856;12.776;2023-12-22T07:06:27;2.70;99.90
7378;DHT22;3730;50.856;12.776;2023-12-22T07:11:40;2.60;99.90
7378;DHT22;3730;50.856;12.776;2023-12-22T07:14:06;2.60;99.90
7378;DHT22;3730;50.856;12.776;2023-12-22T07:16:32;2.80;99.90
7378;DHT22;3730;50.856;12.776;2023-12-22T07:18:58;2.70;99.90
7378;DHT22;3730;50.856;12.776;2023-12-22T07:21:24;2.40;99.90
7378;DHT22;3730;50.856;12.776;2023-12-22T07:23:49;2.60;1.00
7378;DHT22;3730;50.856;12.776;2023-12-22T07:28:41;2.30;1.00
7378;DHT22;3730;50.856;12.776;2023-12-22T07:31:06;2.40;1.00
7378;DHT22;3730;50.856;12.776;2023-12-22T07:33:32;3.00;1.00
7378;DHT22;3730;50.856;12.776;2023-12-22T07:35:58;2.30;1.00
7378;DHT22;3730;50.856;12.776;2023-12-22T07:38:23;2.10;1.00
7378;DHT22;3730;50.856;12.776;2023-12-22T07:40:49;2.40;1.00
7378;DHT22;3730;50.856;12.776;2023-12-22T07:43:15;2.20;1.00
7378;DHT22;3730;50.856;12.776;2023-12-22T07:45:41;2.10;1.00
7378;DHT22;3730;50.856;12.776;2023-12-22T07:48:06;2.00;1.00
7378;DHT22;3730;50.856;12.776;2023-12-22T07:50:33;1.80;1.00
7378;DHT22;3730;50.856;12.776;2023-12-22T07:52:58;2.00;1.00
7378;DHT22;3730;50.856;12.776;2023-12-22T07:55:24;2.00;1.00
7378;DHT22;3730;50.856;12.776;2023-12-22T07:57:50;1.90;1.00
7378;DHT22;3730;50.856;12.776;2023-12-22T08:00:17;2.00;1.00
7378;DHT22;3730;50.856;12.776;2023-12-22T08:02:42;2.00;1.00
7378;DHT22;3730;50.856;12.776;2023-12-22T08:05:09;2.10;1.00
7378;DHT22;3730;50.856;12.776;2023-12-22T08:07:35;2.00;1.00
7378;DHT22;3730;50.856;12.776;2023-12-22T08:10:01;1.90;1.00
7378;DHT22;3730;50.856;12.776;2023-12-22T08:12:28;1.90;1.00
7378;DHT22;3730;50.856;12.776;2023-12-22T08:14:54;1.70;1.00
7378;DHT22;3730;50.856;12.776;2023-12-22T08:17:20;2.20;1.00
7378;DHT22;3730;50.856;12.776;2023-12-22T08:19:45;2.10;1.00
7378;DHT22;3730;50.856;12.776;2023-12-22T08:22:11;2.20;1.00
7378;DHT22;3730;50.856;12.776;2023-12-22T08:24:39;2.20;1.00
7378;DHT22;3730;50.856;12.776;2023-12-22T08:27:05;2.20;1.00
7378;DHT22;3730;50.856;12.776;2023-12-22T08:29:34;2.20;1.00
7378;DHT22;3730;50.856;12.776;2023-12-22T08:32:00;2.30;1.00
7378;DHT22;3730;50.856;12.776;2023-12-22T08:34:27;2.40;1.00
7378;DHT22;3730;50.856;12.776;2023-12-22T08:36:52;2.40;1.00
7378;DHT22;3730;50.856;12.776;2023-12-22T08:39:18;2.50;1.00
7378;DHT22;3730;50.856;12.776;2023-12-22T08:41:44;2.60;1.00
7378;DHT22;3730;50.856;12.776;2023-12-22T08:49:02;2.70;1.00
7378;DHT22;3730;50.856;12.776;2023-12-22T09:03:41;1.70;1.00
7378;DHT22;3730;50.856;12.776;2023-12-22T09:08:38;1.80;1.00
7378;DHT22;3730;50.856;12.776;2023-12-22T09:11:04;1.60;1.00
7378;DHT22;3730;50.856;12.776;2023-12-22T14:11:59;4.20;1.00
7378;DHT22;3730;50.856;12.776;2023-12-22T14:14:25;4.20;91.80
7378;DHT22;3730;50.856;12.776;2023-12-22T14:16:51;4.30;1.00
7378;DHT22;3730;50.856;12.776;2023-12-22T14:19:16;4.30;9.50
7378;DHT22;3730;50.856;12.776;2023-12-22T14:24:08;4.10;99.90
7378;DHT22;3730;50.856;12.776;2023-12-22T14:26:55;4.30;99.90
7378;DHT22;3730;50.856;12.776;2023-12-22T14:29:21;4.30;99.90
7378;DHT22;3730;50.856;12.776;2023-12-22T14:31:50;4.60;1.00
7378;DHT22;3730;50.856;12.776;2023-12-22T14:36:46;4.30;1.00
7378;DHT22;3730;50.856;12.776;2023-12-22T14:41:41;4.40;1.00
7378;DHT22;3730;50.856;12.776;2023-12-22T14:44:11;4.20;1.00
7378;DHT22;3730;50.856;12.776;2023-12-22T14:46:40;4.30;1.00
7378;DHT22;3730;50.856;12.776;2023-12-22T14:49:06;4.40;1.00
7378;DHT22;3730;50.856;12.776;2023-12-22T14:51:38;4.30;1.00
7378;DHT22;3730;50.856;12.776;2023-12-22T14:54:07;4.50;99.90
7378;DHT22;3730;50.856;12.776;2023-12-22T14:58:59;4.40;99.90
7378;DHT22;3730;50.856;12.776;2023-12-22T15:01:26;4.90;99.90
7378;DHT22;3730;50.856;12.776;2023-12-22T15:03:52;4.70;1.00
7378;DHT22;3730;50.856;12.776;2023-12-22T15:06:18;4.40;1.00
7378;DHT22;3730;50.856;12.776;2023-12-22T18:33:45;3.70;1.00
7378;DHT22;3730;50.856;12.776;2023-12-22T18:36:11;3.80;1.00
7378;DHT22;3730;50.856;12.776;2023-12-22T18:38:36;3.80;1.00
7378;DHT22;3730;50.856;12.776;2023-12-22T18:41:02;4.00;1.00
7378;DHT22;3730;50.856;12.776;2023-12-22T18:43:28;4.00;1.00
7378;DHT22;3730;50.856;12.776;2023-12-22T18:45:53;4.10;1.00
7378;DHT22;3730;50.856;12.776;2023-12-22T18:48:19;4.20;1.00
7378;DHT22;3730;50.856;12.776;2023-12-22T18:50:44;3.90;1.00
7378;DHT22;3730;50.856;12.776;2023-12-22T18:53:10;4.10;1.00
7378;DHT22;3730;50.856;12.776;2023-12-22T18:55:36;4.00;1.00
7378;DHT22;3730;50.856;12.776;2023-12-22T18:58:02;3.90;1.00
7378;DHT22;3730;50.856;12.776;2023-12-22T19:00:31;3.70;1.00
7378;DHT22;3730;50.856;12.776;2023-12-22T19:02:57;3.70;1.00
7378;DHT22;3730;50.856;12.776;2023-12-22T19:05:23;3.70;1.00
7378;DHT22;3730;50.856;12.776;2023-12-22T19:10:16;3.20;1.00
7378;DHT22;3730;50.856;12.776;2023-12-22T19:15:10;3.20;1.00
7378;DHT22;3730;50.856;12.776;2023-12-22T20:52:45;1.40;1.00
7378;DHT22;3730;50.856;12.776;2023-12-22T23:48:17;2.40;1.00
